Decoded Metar for OIKB (BANDAR ABBAS in IRAN) (IATA:BND) | Meteo·Mobile Aviation Weather
aviador You're here:

OIKB Decoded Metar

BANDAR ABBAS in IRAN
Report Time2019-06-19 01:00:00
UTC Time2019-06-19 01:23:16
Flight Rules ifr IFR
Wind360° at 04 kt
W.Decomp.*RWY 03: 3.4 kt HW 2.1 kt LCW
Visibility4000 m
Phenomena:Mist
Clouds:N/A
Expected CloudBase > 1,200 ft AGL from Temp-Dew spread
CeilingNone
Temp28°C (ISA +13)
Dew Point25°C (84% RH)
Heat Index32.7°C
QNH0995 hPa
Density Alt2,562 ft
Elevation33 ft
Report Wrong Elevation
Raw Report
METAR OIKB 190100Z 36004KT 4000 BR NSC 28/25 Q0995 A2938=

Extra information for OIKB:More info

Metar Taf Metar & Taf Last 4 Metars F.Rules Stats Wind Profile Meteogram Temp Stats Airport Information Weather charts Add Link Nearby VenuesMetar ALERT Operation Metar Decoded Social comments